createdAt,value
2019-03-31T00:00:09.366Z,94.20
2019-03-31T00:03:14.123Z,94.40
2019-03-31T00:06:18.557Z,94.50
2019-03-31T00:09:23.003Z,94.70
2019-03-31T00:12:27.440Z,94.70
2019-03-31T00:15:31.948Z,94.90
2019-03-31T00:18:36.391Z,94.90
2019-03-31T00:21:40.837Z,94.80
2019-03-31T00:24:45.270Z,95.00
2019-03-31T00:27:49.720Z,95.20
2019-03-31T00:30:55.259Z,95.20
2019-03-31T00:33:59.701Z,95.40
2019-03-31T00:37:07.495Z,95.50
2019-03-31T00:40:12.529Z,95.70
2019-03-31T00:43:16.973Z,95.70
2019-03-31T00:46:21.409Z,95.90
2019-03-31T00:49:25.851Z,95.90
2019-03-31T00:52:30.295Z,95.80
2019-03-31T00:55:34.750Z,96.10
2019-03-31T00:58:39.479Z,96.10
2019-03-31T01:01:48.861Z,95.90
2019-03-31T01:04:53.539Z,95.80
2019-03-31T01:07:58.059Z,95.70
2019-03-31T01:11:08.085Z,95.90
2019-03-31T01:14:12.593Z,96.10
2019-03-31T01:17:19.003Z,96.40
2019-03-31T01:20:23.855Z,96.30
2019-03-31T01:23:28.370Z,96.30
2019-03-31T01:26:33.112Z,96.10
2019-03-31T01:29:37.725Z,96.00
2019-03-31T01:32:42.580Z,96.10
2019-03-31T01:35:47.311Z,96.10
2019-03-31T01:38:51.744Z,96.20
2019-03-31T01:41:56.179Z,96.00
2019-03-31T01:45:00.883Z,96.10
2019-03-31T01:48:05.965Z,96.20
2019-03-31T01:51:11.004Z,96.40
2019-03-31T01:54:15.457Z,96.60
2019-03-31T01:57:19.879Z,96.60
2019-03-31T02:00:28.907Z,96.70
2019-03-31T02:03:33.360Z,96.60
2019-03-31T02:06:37.784Z,96.80
2019-03-31T02:09:42.224Z,97.00
2019-03-31T02:12:46.656Z,97.10
2019-03-31T02:15:51.097Z,96.90
2019-03-31T02:18:55.535Z,96.70
2019-03-31T02:21:59.970Z,96.90
2019-03-31T02:25:05.639Z,97.20
2019-03-31T02:28:10.395Z,97.30
2019-03-31T02:31:14.902Z,97.20
2019-03-31T02:34:19.344Z,97.10
2019-03-31T02:37:23.771Z,97.20
2019-03-31T02:40:28.210Z,97.30
2019-03-31T02:43:32.919Z,97.20
2019-03-31T02:46:37.657Z,97.30
2019-03-31T02:49:42.381Z,97.50
2019-03-31T02:52:47.109Z,97.30
2019-03-31T02:55:51.921Z,97.50
2019-03-31T02:58:58.428Z,97.60
2019-03-31T03:02:03.310Z,97.70
2019-03-31T03:05:18.750Z,97.90
2019-03-31T03:08:15.659Z,97.80
2019-03-31T03:11:21.641Z,97.90
2019-03-31T03:14:28.317Z,98.10
2019-03-31T03:17:33.057Z,97.90
2019-03-31T03:20:37.479Z,97.80
2019-03-31T03:23:42.200Z,97.90
2019-03-31T03:26:46.935Z,97.90
2019-03-31T03:29:51.668Z,97.80
2019-03-31T03:33:15.621Z,97.80
2019-03-31T03:36:02.663Z,97.70
2019-03-31T03:39:08.878Z,97.90
2019-03-31T03:42:13.318Z,98.10
2019-03-31T03:45:18.089Z,98.00
2019-03-31T03:48:22.513Z,98.30
2019-03-31T03:51:27.236Z,98.40
2019-03-31T03:54:31.676Z,98.30
2019-03-31T03:57:36.401Z,98.30
2019-03-31T04:00:40.824Z,98.50
2019-03-31T04:03:45.250Z,98.30
2019-03-31T04:06:49.691Z,98.40
2019-03-31T04:09:54.128Z,98.70
2019-03-31T04:12:58.563Z,98.50
2019-03-31T04:16:02.992Z,98.50
2019-03-31T04:19:07.502Z,98.60
2019-03-31T04:22:12.291Z,98.60
2019-03-31T04:25:16.741Z,98.80
2019-03-31T04:28:21.551Z,98.90
2019-03-31T04:31:25.994Z,99.00
2019-03-31T04:34:30.575Z,98.80
2019-03-31T04:37:35.041Z,98.90
2019-03-31T04:40:39.482Z,99.00
2019-03-31T04:43:43.917Z,99.10
2019-03-31T04:46:48.355Z,98.90
2019-03-31T04:49:52.794Z,98.60
2019-03-31T04:52:57.245Z,98.90
2019-03-31T04:56:01.970Z,98.90
2019-03-31T04:59:06.408Z,99.30
2019-03-31T05:02:10.850Z,99.00
2019-03-31T05:05:15.285Z,98.90
2019-03-31T05:08:19.723Z,99.20
2019-03-31T05:11:24.509Z,99.10
2019-03-31T05:14:28.945Z,98.90
2019-03-31T05:17:35.762Z,99.10
2019-03-31T05:20:39.809Z,99.10
2019-03-31T05:23:44.255Z,99.10
2019-03-31T05:26:48.695Z,99.10
2019-03-31T05:29:53.127Z,99.20
2019-03-31T05:32:57.574Z,99.30
2019-03-31T05:36:02.347Z,99.30
2019-03-31T05:39:07.815Z,99.40
2019-03-31T05:42:12.261Z,99.60
2019-03-31T05:45:16.951Z,99.90
2019-03-31T05:48:21.678Z,99.70
2019-03-31T05:51:26.119Z,99.90
2019-03-31T05:54:30.836Z,99.90
2019-03-31T05:57:35.568Z,99.90
2019-03-31T06:00:41.876Z,99.90
2019-03-31T06:03:46.561Z,99.70
2019-03-31T06:06:51.071Z,99.70
2019-03-31T06:09:55.532Z,99.70
2019-03-31T06:12:59.967Z,99.60
2019-03-31T06:16:04.404Z,99.50
2019-03-31T06:19:08.859Z,99.40
2019-03-31T06:22:13.294Z,98.90
2019-03-31T06:25:17.746Z,98.40
2019-03-31T06:28:22.462Z,97.10
2019-03-31T06:31:26.903Z,95.60
2019-03-31T06:34:31.616Z,94.00
2019-03-31T06:37:36.450Z,92.20
2019-03-31T06:40:42.627Z,89.80
2019-03-31T06:43:47.078Z,85.90
2019-03-31T06:46:51.533Z,82.30
2019-03-31T06:49:55.976Z,79.40
2019-03-31T06:53:00.427Z,78.70
2019-03-31T06:56:04.938Z,79.50
2019-03-31T06:59:09.715Z,76.30
2019-03-31T07:02:14.152Z,75.90
2019-03-31T07:05:18.589Z,73.80
2019-03-31T07:08:23.357Z,71.10
2019-03-31T07:11:27.799Z,67.30
2019-03-31T07:14:32.252Z,65.00
2019-03-31T07:17:36.707Z,62.70
2019-03-31T07:20:41.401Z,60.60
2019-03-31T07:23:46.193Z,59.30
2019-03-31T07:26:50.630Z,61.00
2019-03-31T07:29:55.086Z,64.00
2019-03-31T07:32:59.874Z,66.80
2019-03-31T07:36:04.321Z,70.40
2019-03-31T07:39:09.329Z,73.70
2019-03-31T07:42:14.173Z,73.90
2019-03-31T07:45:19.111Z,76.40
2019-03-31T07:48:23.559Z,80.40
2019-03-31T07:51:28.251Z,82.80
2019-03-31T07:54:32.706Z,84.00
2019-03-31T07:57:37.238Z,86.00
2019-03-31T08:00:41.753Z,85.20
2019-03-31T08:03:46.203Z,87.50
2019-03-31T08:06:50.645Z,88.40
2019-03-31T08:09:55.092Z,87.90
2019-03-31T08:13:00.035Z,88.30
2019-03-31T08:16:04.484Z,88.90
2019-03-31T08:19:08.936Z,90.00
2019-03-31T08:22:13.382Z,88.50
2019-03-31T08:25:18.239Z,87.30
2019-03-31T08:28:23.256Z,88.40
2019-03-31T08:31:28.019Z,86.20
2019-03-31T08:34:32.732Z,83.90
2019-03-31T08:37:37.216Z,83.90
2019-03-31T08:40:42.013Z,84.40
2019-03-31T08:43:46.729Z,85.50
2019-03-31T08:46:51.168Z,82.40
2019-03-31T08:49:55.625Z,82.60
2019-03-31T08:53:00.058Z,81.70
2019-03-31T08:56:04.513Z,79.20
2019-03-31T08:59:08.995Z,75.80
2019-03-31T09:02:23.841Z,76.50
2019-03-31T09:05:28.562Z,76.90
2019-03-31T09:08:33.005Z,74.70
2019-03-31T09:11:37.446Z,70.90
2019-03-31T09:14:42.636Z,69.70
2019-03-31T09:17:47.365Z,70.50
2019-03-31T09:20:51.816Z,68.80
2019-03-31T09:23:56.515Z,66.00
2019-03-31T09:27:01.209Z,68.00
2019-03-31T09:30:11.927Z,67.50
2019-03-31T09:33:16.565Z,64.20
2019-03-31T09:36:21.475Z,66.80
2019-03-31T09:39:26.169Z,67.40
2019-03-31T09:42:30.962Z,64.10
2019-03-31T09:45:35.679Z,63.80
2019-03-31T09:48:41.246Z,65.60
2019-03-31T09:51:46.390Z,63.30
2019-03-31T09:54:51.253Z,61.90
2019-03-31T09:57:55.993Z,59.50
2019-03-31T10:01:00.861Z,57.40
2019-03-31T10:04:05.810Z,59.40
2019-03-31T10:07:10.332Z,61.40
2019-03-31T10:10:31.525Z,60.20
2019-03-31T10:13:36.278Z,60.40
2019-03-31T10:16:41.012Z,59.40
2019-03-31T10:19:45.733Z,63.00
2019-03-31T10:22:50.506Z,61.20
2019-03-31T10:25:55.305Z,60.00
2019-03-31T10:28:59.743Z,61.60
2019-03-31T10:32:23.765Z,61.40
2019-03-31T10:35:28.227Z,60.20
2019-03-31T10:38:32.666Z,58.20
2019-03-31T10:41:37.120Z,57.70
2019-03-31T10:44:41.574Z,56.00
2019-03-31T10:47:46.334Z,54.40
2019-03-31T10:50:50.789Z,53.90
2019-03-31T10:53:55.496Z,52.90
2019-03-31T10:57:00.267Z,53.40
2019-03-31T11:00:08.015Z,53.10
2019-03-31T11:03:12.752Z,52.60
2019-03-31T11:06:17.204Z,50.10
2019-03-31T11:09:21.642Z,50.90
2019-03-31T11:12:26.092Z,48.20
2019-03-31T11:15:30.855Z,49.40
2019-03-31T11:18:35.592Z,48.40
2019-03-31T11:21:41.757Z,49.10
2019-03-31T11:24:46.201Z,47.60
2019-03-31T11:27:50.664Z,46.20
2019-03-31T11:30:55.114Z,49.20
2019-03-31T11:33:59.863Z,48.00
2019-03-31T11:37:13.424Z,49.90
2019-03-31T11:40:11.205Z,45.20
2019-03-31T11:43:15.674Z,46.40
2019-03-31T11:46:20.416Z,46.00
2019-03-31T11:49:24.856Z,47.60
2019-03-31T11:52:29.572Z,49.40
2019-03-31T11:55:34.030Z,47.10
2019-03-31T11:58:38.732Z,49.70
2019-03-31T12:01:43.178Z,48.00
2019-03-31T12:04:47.641Z,46.40
2019-03-31T12:07:52.410Z,49.10
2019-03-31T12:10:57.141Z,47.40
2019-03-31T12:14:01.580Z,47.70
2019-03-31T12:17:06.032Z,45.10
2019-03-31T12:20:11.239Z,46.00
2019-03-31T12:23:15.958Z,47.00
2019-03-31T12:26:20.684Z,42.00
2019-03-31T12:29:25.412Z,43.80
2019-03-31T12:32:29.858Z,39.50
2019-03-31T12:35:34.394Z,43.00
2019-03-31T12:38:38.820Z,44.50
2019-03-31T12:41:43.521Z,44.00
2019-03-31T12:44:47.957Z,42.40
2019-03-31T12:47:52.675Z,45.00
2019-03-31T12:50:57.112Z,44.60
2019-03-31T12:54:01.831Z,46.00
2019-03-31T12:57:06.272Z,48.40
2019-03-31T13:00:11.188Z,49.50
2019-03-31T13:03:16.562Z,46.50
2019-03-31T13:06:21.152Z,46.70
2019-03-31T13:09:25.896Z,45.00
2019-03-31T13:12:30.342Z,45.00
2019-03-31T13:15:35.046Z,44.40
2019-03-31T13:18:39.483Z,46.10
2019-03-31T13:21:43.945Z,46.50
2019-03-31T13:24:48.389Z,41.90
2019-03-31T13:27:53.146Z,41.90
2019-03-31T13:30:57.884Z,41.60
2019-03-31T13:34:02.611Z,42.40
2019-03-31T13:37:07.342Z,42.40
2019-03-31T13:40:12.788Z,43.50
2019-03-31T13:43:17.225Z,44.50
2019-03-31T13:46:21.662Z,44.90
2019-03-31T13:49:26.112Z,45.60
2019-03-31T13:52:30.564Z,45.30
2019-03-31T13:55:35.010Z,42.90
2019-03-31T13:58:41.235Z,44.10
2019-03-31T14:01:45.750Z,44.40
2019-03-31T14:04:51.787Z,41.70
2019-03-31T14:07:56.595Z,42.50
2019-03-31T14:11:01.034Z,41.30
2019-03-31T14:14:05.548Z,41.40
2019-03-31T14:17:10.269Z,40.20
2019-03-31T14:20:14.842Z,39.60
2019-03-31T14:23:19.300Z,39.60
2019-03-31T14:26:24.068Z,40.30
2019-03-31T14:29:28.510Z,38.80
2019-03-31T14:32:32.946Z,38.40
2019-03-31T14:35:38.169Z,38.60
2019-03-31T14:38:42.808Z,39.00
2019-03-31T14:41:47.238Z,35.70
2019-03-31T14:44:51.679Z,37.00
2019-03-31T14:47:56.459Z,39.30
2019-03-31T14:51:01.211Z,38.90
2019-03-31T14:54:05.652Z,37.40
2019-03-31T14:57:10.443Z,36.90
2019-03-31T15:00:15.544Z,35.80
2019-03-31T15:03:20.623Z,38.80
2019-03-31T15:06:25.063Z,39.00
2019-03-31T15:09:29.503Z,37.90
2019-03-31T15:12:33.941Z,38.30
2019-03-31T15:15:38.380Z,37.60
2019-03-31T15:18:42.825Z,39.20
2019-03-31T15:21:47.324Z,38.00
2019-03-31T15:24:51.766Z,39.30
2019-03-31T15:27:56.208Z,38.70
2019-03-31T15:31:00.655Z,38.20
2019-03-31T15:34:05.487Z,39.60
2019-03-31T15:37:09.916Z,39.00
2019-03-31T15:40:14.627Z,39.80
2019-03-31T15:43:19.295Z,42.10
2019-03-31T15:46:24.717Z,40.30
2019-03-31T15:49:29.362Z,40.10
2019-03-31T15:52:33.878Z,41.00
2019-03-31T15:55:38.382Z,41.80
2019-03-31T15:58:42.833Z,40.70
2019-03-31T16:01:47.277Z,40.70
2019-03-31T16:04:52.065Z,40.90
2019-03-31T16:07:56.497Z,40.70
2019-03-31T16:11:01.295Z,42.10
2019-03-31T16:14:07.105Z,41.40
2019-03-31T16:17:11.550Z,40.80
2019-03-31T16:20:16.861Z,41.80
2019-03-31T16:23:21.310Z,41.20
2019-03-31T16:26:26.343Z,41.90
2019-03-31T16:29:31.042Z,42.00
2019-03-31T16:32:35.487Z,41.40
2019-03-31T16:35:39.928Z,41.70
2019-03-31T16:38:44.623Z,42.50
2019-03-31T16:41:49.360Z,44.20
2019-03-31T16:44:58.320Z,44.80
2019-03-31T16:48:00.265Z,43.60
2019-03-31T16:51:04.976Z,46.10
2019-03-31T16:54:09.707Z,45.00
2019-03-31T16:57:14.165Z,44.80
2019-03-31T17:00:19.715Z,44.30
2019-03-31T17:03:24.407Z,46.10
2019-03-31T17:06:29.138Z,45.70
2019-03-31T17:09:33.570Z,44.00
2019-03-31T17:12:38.017Z,44.20
2019-03-31T17:15:42.711Z,45.20
2019-03-31T17:18:47.153Z,46.60
2019-03-31T17:21:51.598Z,48.90
2019-03-31T17:24:56.291Z,50.30
2019-03-31T17:28:01.024Z,51.70
2019-03-31T17:31:05.543Z,52.00
2019-03-31T17:34:10.282Z,51.40
2019-03-31T17:37:15.009Z,52.80
2019-03-31T17:40:19.462Z,51.60
2019-03-31T17:43:23.952Z,51.40
2019-03-31T17:46:28.690Z,52.00
2019-03-31T17:49:33.136Z,51.90
2019-03-31T17:52:37.577Z,53.20
2019-03-31T17:55:42.022Z,52.90
2019-03-31T17:58:46.455Z,53.30
2019-03-31T18:01:51.214Z,54.20
2019-03-31T18:04:55.651Z,55.10
2019-03-31T18:08:00.096Z,55.10
2019-03-31T18:11:04.544Z,55.80
2019-03-31T18:14:08.973Z,56.40
2019-03-31T18:17:13.410Z,56.90
2019-03-31T18:20:18.164Z,57.50
2019-03-31T18:23:22.611Z,57.90
2019-03-31T18:26:27.322Z,57.70
2019-03-31T18:29:31.758Z,58.90
2019-03-31T18:32:36.579Z,58.50
2019-03-31T18:35:41.030Z,59.30
2019-03-31T18:38:45.465Z,60.10
2019-03-31T18:41:49.928Z,59.70
2019-03-31T18:44:54.366Z,60.10
2019-03-31T18:48:01.087Z,61.10
2019-03-31T18:51:04.983Z,60.60
2019-03-31T18:54:13.797Z,61.30
2019-03-31T18:57:22.840Z,61.30
2019-03-31T19:00:37.805Z,61.80
2019-03-31T19:03:52.751Z,61.30
2019-03-31T19:07:08.611Z,61.50
2019-03-31T19:10:30.813Z,61.10
2019-03-31T19:13:54.804Z,61.40
2019-03-31T19:16:50.854Z,62.20
2019-03-31T19:19:57.282Z,59.60
2019-03-31T19:23:01.499Z,61.00
2019-03-31T19:26:07.647Z,60.50
2019-03-31T19:29:16.973Z,60.50
2019-03-31T19:32:24.341Z,61.10
2019-03-31T19:35:33.233Z,60.60
2019-03-31T19:38:47.231Z,62.10
2019-03-31T19:42:11.168Z,63.40
2019-03-31T19:45:26.142Z,62.10
2019-03-31T19:48:34.743Z,63.20
2019-03-31T19:51:50.219Z,64.20
2019-03-31T19:54:57.071Z,63.10
2019-03-31T19:58:07.372Z,64.80
2019-03-31T20:01:22.174Z,64.90
2019-03-31T20:04:40.468Z,66.00
2019-03-31T20:07:47.191Z,64.50
2019-03-31T20:10:59.411Z,66.00
2019-03-31T20:14:23.944Z,65.90
2019-03-31T20:17:33.008Z,66.50
2019-03-31T20:20:51.117Z,67.70
2019-03-31T20:23:57.205Z,67.80
2019-03-31T20:27:08.864Z,68.30
2019-03-31T20:30:20.814Z,69.30
2019-03-31T20:33:26.907Z,68.70
2019-03-31T20:36:36.199Z,68.10
2019-03-31T20:39:56.576Z,69.80
2019-03-31T20:42:58.907Z,70.80
2019-03-31T20:46:04.515Z,71.10
2019-03-31T20:49:09.116Z,72.30
2019-03-31T20:52:13.558Z,73.50
2019-03-31T20:55:18.295Z,73.80
2019-03-31T20:58:22.743Z,74.40
2019-03-31T21:01:27.452Z,74.80
2019-03-31T21:04:32.187Z,75.20
2019-03-31T21:07:36.627Z,75.50
2019-03-31T21:10:41.081Z,76.10
2019-03-31T21:13:45.865Z,76.50
2019-03-31T21:16:50.302Z,77.00
2019-03-31T21:19:54.759Z,77.70
2019-03-31T21:22:59.208Z,78.20
2019-03-31T21:26:04.022Z,78.90
2019-03-31T21:29:08.467Z,79.60
2019-03-31T21:32:12.929Z,80.00
2019-03-31T21:35:17.644Z,79.70
2019-03-31T21:38:22.111Z,80.20
2019-03-31T21:41:26.550Z,80.80
2019-03-31T21:44:31.001Z,81.20
2019-03-31T21:47:35.433Z,81.60
2019-03-31T21:50:39.879Z,82.10
2019-03-31T21:53:44.331Z,82.20
2019-03-31T21:56:48.769Z,83.00
2019-03-31T21:59:53.547Z,83.70
2019-03-31T22:02:58.274Z,84.30
2019-03-31T22:06:03.010Z,84.80
2019-03-31T22:09:09.638Z,85.30
2019-03-31T22:12:14.078Z,85.80
2019-03-31T22:15:18.834Z,86.00
2019-03-31T22:18:23.557Z,86.10
2019-03-31T22:21:28.001Z,86.30
2019-03-31T22:24:32.450Z,86.50
2019-03-31T22:27:36.891Z,86.00
2019-03-31T22:30:41.340Z,86.30
2019-03-31T22:33:46.095Z,87.10
2019-03-31T22:36:50.825Z,87.50
2019-03-31T22:39:55.555Z,87.60
2019-03-31T22:43:00.002Z,88.80
2019-03-31T22:46:04.441Z,88.00
2019-03-31T22:49:09.138Z,88.70
2019-03-31T22:52:13.592Z,89.20
2019-03-31T22:55:18.036Z,89.40
2019-03-31T22:58:23.743Z,89.80
2019-03-31T23:01:28.199Z,90.10
2019-03-31T23:04:32.991Z,90.10
2019-03-31T23:07:37.432Z,90.40
2019-03-31T23:10:41.878Z,90.60
2019-03-31T23:13:46.568Z,91.00
2019-03-31T23:16:51.033Z,91.30
2019-03-31T23:19:55.724Z,91.40
2019-03-31T23:23:00.461Z,91.60
2019-03-31T23:26:05.188Z,91.70
2019-03-31T23:29:09.632Z,91.70
2019-03-31T23:32:14.086Z,91.70
2019-03-31T23:35:18.536Z,91.80
2019-03-31T23:38:22.974Z,91.60
2019-03-31T23:41:27.430Z,92.10
2019-03-31T23:44:31.886Z,92.30
2019-03-31T23:47:36.341Z,92.30
2019-03-31T23:50:41.120Z,92.30
2019-03-31T23:53:45.533Z,92.30
2019-03-31T23:56:49.989Z,92.10
2019-03-31T23:59:54.432Z,92.10
